Time,TemperatureF,DewpointF,PressureIn,WindDirection,WindDirectionDegrees,WindSpeedMPH,WindSpeedGustMPH,Humidity,HourlyPrecipIn,Conditions,Clouds,dailyrainin,SoftwareType,DateUTC
2015-07-30 00:10:00,61.3,49.0,29.87,SW,232,0.0,-999.0,64,-99.99,,,0.00,weatherlink.com 1.10,2015-07-30 07:10:00,
2015-07-30 00:25:00,61.3,51.0,29.87,SW,232,0.0,-999.0,70,-99.99,,,0.00,weatherlink.com 1.10,2015-07-30 07:25:00,
2015-07-30 00:40:00,60.9,51.0,29.87,SW,232,0.0,-999.0,70,-99.99,,,0.00,weatherlink.com 1.10,2015-07-30 07:40:00,
2015-07-30 00:55:00,60.1,50.0,29.87,SW,232,0.0,-999.0,70,-99.99,,,0.00,weatherlink.com 1.10,2015-07-30 07:55:00,
2015-07-30 01:10:00,59.5,50.0,29.88,SW,232,0.0,-999.0,70,-99.99,,,0.00,weatherlink.com 1.10,2015-07-30 08:10:00,
2015-07-30 01:25:00,58.7,49.0,29.88,SW,232,0.0,-999.0,71,-99.99,,,0.00,weatherlink.com 1.10,2015-07-30 08:25:00,
2015-07-30 01:40:00,58.3,50.0,29.87,SW,232,0.0,-999.0,73,-99.99,,,0.00,weatherlink.com 1.10,2015-07-30 08:40:00,
2015-07-30 01:55:00,57.5,49.0,29.88,SW,232,0.0,-999.0,73,-99.99,,,0.00,weatherlink.com 1.10,2015-07-30 08:55:00,
2015-07-30 02:10:00,56.9,49.0,29.88,SW,232,0.0,-999.0,74,-99.99,,,0.00,weatherlink.com 1.10,2015-07-30 09:10:00,
2015-07-30 02:25:00,56.2,49.0,29.88,SW,232,0.0,-999.0,76,-99.99,,,0.00,weatherlink.com 1.10,2015-07-30 09:25:00,
2015-07-30 02:40:00,55.7,49.0,29.88,SW,232,0.0,-999.0,77,-99.99,,,0.00,weatherlink.com 1.10,2015-07-30 09:40:00,
2015-07-30 02:55:00,55.3,49.0,29.88,SW,232,0.0,-999.0,78,-99.99,,,0.00,weatherlink.com 1.10,2015-07-30 09:55:00,
2015-07-30 03:10:00,54.8,49.0,29.88,SW,232,0.0,-999.0,80,-99.99,,,0.00,weatherlink.com 1.10,2015-07-30 10:10:00,
2015-07-30 03:25:00,54.1,48.0,29.88,SW,232,0.0,-999.0,81,-99.99,,,0.00,weatherlink.com 1.10,2015-07-30 10:25:00,
2015-07-30 03:40:00,53.9,48.0,29.88,SW,232,0.0,-999.0,81,-99.99,,,0.00,weatherlink.com 1.10,2015-07-30 10:40:00,
2015-07-30 03:56:00,53.3,48.0,29.88,SW,232,0.0,-999.0,82,-99.99,,,0.00,weatherlink.com 1.10,2015-07-30 10:56:00,
2015-07-30 04:11:00,52.9,48.0,29.88,SW,232,0.0,-999.0,84,-99.99,,,0.00,weatherlink.com 1.10,2015-07-30 11:11:00,
2015-07-30 04:26:00,52.6,48.0,29.89,SW,232,0.0,-999.0,83,-99.99,,,0.00,weatherlink.com 1.10,2015-07-30 11:26:00,
2015-07-30 04:41:00,51.9,47.0,29.89,SW,232,0.0,-999.0,84,-99.99,,,0.00,weatherlink.com 1.10,2015-07-30 11:41:00,
2015-07-30 04:56:00,52.0,48.0,29.89,SW,232,0.0,-999.0,86,-99.99,,,0.00,weatherlink.com 1.10,2015-07-30 11:56:00,
2015-07-30 05:11:00,51.6,47.0,29.89,SW,232,0.0,-999.0,83,-99.99,,,0.00,weatherlink.com 1.10,2015-07-30 12:11:00,
2015-07-30 05:26:00,51.1,47.0,29.90,SW,232,0.0,-999.0,86,-99.99,,,0.00,weatherlink.com 1.10,2015-07-30 12:26:00,
2015-07-30 05:41:00,51.0,47.0,29.90,SW,232,0.0,-999.0,87,-99.99,,,0.00,weatherlink.com 1.10,2015-07-30 12:41:00,
2015-07-30 06:11:00,50.5,47.0,29.91,SW,232,0.0,-999.0,89,-99.99,,,0.00,weatherlink.com 1.10,2015-07-30 13:11:00,
2015-07-30 06:41:00,50.1,47.0,29.92,SW,232,0.0,-999.0,90,-99.99,,,0.00,weatherlink.com 1.10,2015-07-30 13:41:00,
2015-07-30 06:56:00,50.1,47.0,29.93,SW,232,0.0,-999.0,90,-99.99,,,0.00,weatherlink.com 1.10,2015-07-30 13:56:00,
2015-07-30 07:11:00,50.4,48.0,29.93,SW,232,0.0,-999.0,90,-99.99,,,0.00,weatherlink.com 1.10,2015-07-30 14:11:00,
2015-07-30 07:26:00,52.6,50.0,29.94,SW,232,0.0,-999.0,89,-99.99,,,0.00,weatherlink.com 1.10,2015-07-30 14:26:00,
2015-07-30 07:41:00,54.8,51.0,29.95,SW,232,0.0,-999.0,86,-99.99,,,0.00,weatherlink.com 1.10,2015-07-30 14:41:00,
2015-07-30 07:56:00,58.4,51.0,29.95,SW,232,0.0,-999.0,77,-99.99,,,0.00,weatherlink.com 1.10,2015-07-30 14:56:00,
2015-07-30 08:11:00,62.0,52.0,29.94,SW,232,0.0,-999.0,71,-99.99,,,0.00,weatherlink.com 1.10,2015-07-30 15:11:00,
2015-07-30 08:26:00,64.5,52.0,29.95,SW,232,0.0,-999.0,64,-99.99,,,0.00,weatherlink.com 1.10,2015-07-30 15:26:00,
2015-07-30 08:56:00,70.1,49.0,29.95,SW,232,0.0,-999.0,47,-99.99,,,0.00,weatherlink.com 1.10,2015-07-30 15:56:00,
2015-07-30 09:11:00,72.3,50.0,29.94,SSW,192,0.0,-999.0,46,-99.99,,,0.00,weatherlink.com 1.10,2015-07-30 16:11:00,